AEE765 EFHK-LGAV
Flight info
| Callsign | AEE765 |
|---|---|
| Flight time | 3h 36m |
| Altitude | 36000 |
| Route | KOIVU DCT LARTI DCT NAVOT DCT LUTAL DCT BERIL/N0450F370 DCT BOKSU/N0448F360 DCT TOXAR DCT ROBTU/N0442F370 DCT KENIN DCT LOMOS/N0442F380 DCT BOBVO DCT LETNI/N0440F370 DCT MAKED DCT SIGFO UM749 ROPOX |
| Aircraft | A320/M-SDE3FGHIRWY/LB1 |
Departure
| Time | 2026-05-06 14:45 |
|---|---|
| Airport | Helsinki Vantaa Airport (EFHK) |
Arrival
| Time | 2026-05-06 18:21 |
|---|---|
| Airport | Athens Eleftherios Venizelos International Airport (LGAV) |
| Time | Latitude | Longitude | Altitude | Speed | Heading |
|---|---|---|---|---|---|
| 2026-05-06 14:21 | 60.31634 | 24.97246 | 167 ft | 0 kts | 242° |
| 2026-05-06 14:36 | 60.31640 | 24.97272 | 167 ft | 2 kts | 242° |
| 2026-05-06 14:36 | 60.31648 | 24.97302 | 167 ft | 2 kts | 242° |
| 2026-05-06 14:37 | 60.31654 | 24.97337 | 166 ft | 3 kts | 277° |
| 2026-05-06 14:37 | 60.31648 | 24.97371 | 166 ft | 3 kts | 315° |
| 2026-05-06 14:37 | 60.31641 | 24.97385 | 166 ft | 0 kts | 332° |
| 2026-05-06 14:40 | 60.31643 | 24.97382 | 166 ft | 1 kts | 332° |
| 2026-05-06 14:40 | 60.31656 | 24.97367 | 166 ft | 3 kts | 331° |
| 2026-05-06 14:40 | 60.31680 | 24.97340 | 166 ft | 5 kts | 330° |
| 2026-05-06 14:41 | 60.31713 | 24.97301 | 166 ft | 6 kts | 333° |
| 2026-05-06 14:41 | 60.31760 | 24.97262 | 166 ft | 8 kts | 333° |
| 2026-05-06 14:41 | 60.31815 | 24.97205 | 166 ft | 10 kts | 332° |
| 2026-05-06 14:41 | 60.31882 | 24.97135 | 166 ft | 11 kts | 339° |
| 2026-05-06 14:42 | 60.31958 | 24.97192 | 164 ft | 13 kts | 3° |
| 2026-05-06 14:42 | 60.32040 | 24.97120 | 166 ft | 13 kts | 330° |
| 2026-05-06 14:42 | 60.32126 | 24.97025 | 166 ft | 15 kts | 331° |
| 2026-05-06 14:42 | 60.32225 | 24.96927 | 165 ft | 17 kts | 333° |
| 2026-05-06 14:43 | 60.32338 | 24.96812 | 166 ft | 19 kts | 333° |
| 2026-05-06 14:43 | 60.32441 | 24.96696 | 174 ft | 15 kts | 320° |
| 2026-05-06 14:43 | 60.32436 | 24.96535 | 175 ft | 13 kts | 241° |
| 2026-05-06 14:43 | 60.32348 | 24.96327 | 177 ft | 42 kts | 226° |
| 2026-05-06 14:44 | 60.32007 | 24.95572 | 173 ft | 102 kts | 227° |
| 2026-05-06 14:44 | 60.31426 | 24.94299 | 204 ft | 142 kts | 225° |
| 2026-05-06 14:44 | 60.30760 | 24.92850 | 769 ft | 140 kts | 226° |
| 2026-05-06 14:45 | 60.29096 | 24.90666 | 1972 ft | 147 kts | 212° |
| 2026-05-06 14:45 | 60.28169 | 24.89625 | 2343 ft | 162 kts | 212° |
| 2026-05-06 14:45 | 60.27134 | 24.88466 | 2703 ft | 179 kts | 212° |
| 2026-05-06 14:45 | 60.25998 | 24.87197 | 3124 ft | 195 kts | 211° |
| 2026-05-06 14:46 | 60.24748 | 24.85806 | 3523 ft | 214 kts | 212° |
| 2026-05-06 14:46 | 60.23368 | 24.84382 | 4032 ft | 232 kts | 201° |
| 2026-05-06 14:46 | 60.21749 | 24.83575 | 4626 ft | 246 kts | 194° |
| 2026-05-06 14:46 | 60.20060 | 24.82811 | 5412 ft | 251 kts | 194° |
| 2026-05-06 14:47 | 60.18349 | 24.82033 | 6218 ft | 254 kts | 195° |
| 2026-05-06 14:47 | 60.16615 | 24.81234 | 7019 ft | 257 kts | 195° |
| 2026-05-06 14:47 | 60.14869 | 24.80429 | 7869 ft | 258 kts | 195° |
| 2026-05-06 14:47 | 60.13078 | 24.79598 | 8442 ft | 272 kts | 195° |
| 2026-05-06 14:48 | 60.11191 | 24.78722 | 9074 ft | 281 kts | 195° |
| 2026-05-06 14:48 | 60.09280 | 24.77841 | 9886 ft | 283 kts | 195° |
| 2026-05-06 14:48 | 60.07337 | 24.76947 | 10481 ft | 292 kts | 196° |
| 2026-05-06 14:48 | 60.05304 | 24.76006 | 10827 ft | 309 kts | 196° |
| 2026-05-06 14:49 | 60.03155 | 24.75012 | 11124 ft | 325 kts | 197° |
| 2026-05-06 14:49 | 60.00908 | 24.73978 | 11541 ft | 337 kts | 197° |
| 2026-05-06 14:49 | 59.98604 | 24.72929 | 12190 ft | 340 kts | 197° |
| 2026-05-06 14:49 | 59.96291 | 24.71882 | 12895 ft | 342 kts | 198° |
| 2026-05-06 14:50 | 59.93959 | 24.70832 | 13585 ft | 345 kts | 198° |
| 2026-05-06 14:50 | 59.91607 | 24.69772 | 14210 ft | 347 kts | 199° |
| 2026-05-06 14:50 | 59.89249 | 24.68704 | 14822 ft | 348 kts | 199° |
| 2026-05-06 14:50 | 59.86885 | 24.67630 | 15444 ft | 349 kts | 199° |
| 2026-05-06 14:51 | 59.84508 | 24.66552 | 16056 ft | 351 kts | 199° |
| 2026-05-06 14:51 | 59.82126 | 24.65459 | 16677 ft | 352 kts | 199° |
| 2026-05-06 14:51 | 59.79742 | 24.64337 | 17288 ft | 353 kts | 200° |
| 2026-05-06 14:51 | 59.77349 | 24.63196 | 17912 ft | 354 kts | 200° |
| 2026-05-06 14:52 | 59.74949 | 24.62051 | 18508 ft | 356 kts | 200° |
| 2026-05-06 14:52 | 59.72528 | 24.60902 | 19060 ft | 358 kts | 200° |
| 2026-05-06 14:52 | 59.70102 | 24.59754 | 19626 ft | 360 kts | 200° |
| 2026-05-06 14:52 | 59.67662 | 24.58604 | 20200 ft | 361 kts | 201° |
| 2026-05-06 14:53 | 59.65216 | 24.57428 | 20768 ft | 362 kts | 201° |
| 2026-05-06 14:53 | 59.62772 | 24.56183 | 21313 ft | 363 kts | 202° |
| 2026-05-06 14:53 | 59.60327 | 24.54893 | 21836 ft | 364 kts | 202° |
| 2026-05-06 14:53 | 59.57874 | 24.53587 | 22342 ft | 366 kts | 202° |
| 2026-05-06 14:54 | 59.55408 | 24.52285 | 22840 ft | 368 kts | 202° |
| 2026-05-06 14:54 | 59.52930 | 24.50990 | 23346 ft | 369 kts | 202° |
| 2026-05-06 14:54 | 59.50442 | 24.49697 | 23784 ft | 371 kts | 202° |
| 2026-05-06 14:54 | 59.47939 | 24.48402 | 24182 ft | 372 kts | 202° |
| 2026-05-06 14:55 | 59.45433 | 24.47112 | 24574 ft | 373 kts | 202° |
| 2026-05-06 14:55 | 59.42913 | 24.45818 | 24957 ft | 375 kts | 202° |
| 2026-05-06 14:55 | 59.40388 | 24.44522 | 25338 ft | 376 kts | 202° |
| 2026-05-06 14:55 | 59.37852 | 24.43223 | 25703 ft | 377 kts | 202° |
| 2026-05-06 14:56 | 59.35310 | 24.41921 | 26059 ft | 379 kts | 202° |
| 2026-05-06 14:56 | 59.32738 | 24.40693 | 26413 ft | 382 kts | 200° |
| 2026-05-06 14:56 | 59.30160 | 24.39665 | 26756 ft | 385 kts | 198° |
| 2026-05-06 14:56 | 59.27517 | 24.38737 | 27103 ft | 387 kts | 197° |
| 2026-05-06 14:57 | 59.24852 | 24.37853 | 27433 ft | 389 kts | 197° |
| 2026-05-06 14:57 | 59.22178 | 24.36971 | 27775 ft | 391 kts | 197° |
| 2026-05-06 14:57 | 59.19494 | 24.36070 | 28107 ft | 392 kts | 197° |
| 2026-05-06 14:57 | 59.16801 | 24.35140 | 28434 ft | 393 kts | 197° |
| 2026-05-06 14:58 | 59.14105 | 24.34188 | 28756 ft | 395 kts | 198° |
| 2026-05-06 14:58 | 59.11398 | 24.33220 | 29056 ft | 397 kts | 197° |
| 2026-05-06 14:58 | 59.08679 | 24.32248 | 29428 ft | 396 kts | 197° |
| 2026-05-06 14:58 | 59.05974 | 24.31286 | 29916 ft | 395 kts | 197° |
| 2026-05-06 14:59 | 59.03279 | 24.30331 | 30318 ft | 393 kts | 197° |
| 2026-05-06 14:59 | 59.00594 | 24.29380 | 30713 ft | 391 kts | 197° |
| 2026-05-06 14:59 | 58.97922 | 24.28434 | 31104 ft | 389 kts | 197° |
| 2026-05-06 14:59 | 58.95265 | 24.27494 | 31503 ft | 388 kts | 197° |
| 2026-05-06 15:00 | 58.92617 | 24.26559 | 31893 ft | 386 kts | 197° |
| 2026-05-06 15:00 | 58.90861 | 24.25940 | 32153 ft | 386 kts | 197° |
| 2026-05-06 15:00 | 58.87375 | 24.24715 | 32672 ft | 384 kts | 197° |
| 2026-05-06 15:00 | 58.84748 | 24.23795 | 33053 ft | 383 kts | 197° |
| 2026-05-06 15:01 | 58.82133 | 24.22882 | 33435 ft | 382 kts | 197° |
| 2026-05-06 15:01 | 58.79527 | 24.21974 | 33807 ft | 381 kts | 197° |
| 2026-05-06 15:01 | 58.76922 | 24.21066 | 34151 ft | 380 kts | 197° |
| 2026-05-06 15:01 | 58.74324 | 24.20159 | 34405 ft | 380 kts | 197° |
| 2026-05-06 15:02 | 58.71718 | 24.19244 | 34609 ft | 382 kts | 197° |
| 2026-05-06 15:02 | 58.69982 | 24.18635 | 34740 ft | 383 kts | 197° |
| 2026-05-06 15:02 | 58.67360 | 24.17720 | 34936 ft | 384 kts | 197° |
| 2026-05-06 15:02 | 58.63869 | 24.16505 | 35196 ft | 385 kts | 197° |
| 2026-05-06 15:03 | 58.61228 | 24.15590 | 35396 ft | 386 kts | 197° |
| 2026-05-06 15:03 | 58.58578 | 24.14679 | 35595 ft | 387 kts | 197° |
| 2026-05-06 15:03 | 58.55920 | 24.13769 | 35794 ft | 388 kts | 196° |
| 2026-05-06 15:03 | 58.54159 | 24.13166 | 35920 ft | 389 kts | 196° |
| 2026-05-06 15:04 | 58.51479 | 24.12249 | 35987 ft | 393 kts | 196° |
| 2026-05-06 15:04 | 58.46026 | 24.10368 | 35994 ft | 401 kts | 196° |
| 2026-05-06 15:05 | 58.40527 | 24.08487 | 35988 ft | 401 kts | 196° |
| 2026-05-06 15:05 | 58.35034 | 24.06616 | 35989 ft | 401 kts | 196° |
| 2026-05-06 15:06 | 58.29539 | 24.04760 | 35989 ft | 401 kts | 196° |
| 2026-05-06 15:06 | 58.24078 | 24.02920 | 35992 ft | 401 kts | 195° |
| 2026-05-06 15:07 | 58.18582 | 24.01061 | 35979 ft | 401 kts | 195° |
| 2026-05-06 15:07 | 58.13082 | 23.99208 | 35975 ft | 402 kts | 195° |
| 2026-05-06 15:08 | 58.07575 | 23.97355 | 35976 ft | 402 kts | 195° |
| 2026-05-06 15:08 | 58.02069 | 23.95514 | 35980 ft | 402 kts | 195° |
| 2026-05-06 15:09 | 57.96602 | 23.93693 | 35974 ft | 402 kts | 195° |
| 2026-05-06 15:09 | 57.91100 | 23.91864 | 35966 ft | 402 kts | 195° |
| 2026-05-06 15:10 | 57.85609 | 23.90047 | 35962 ft | 402 kts | 195° |
| 2026-05-06 15:10 | 57.80076 | 23.88223 | 35968 ft | 403 kts | 195° |
| 2026-05-06 15:11 | 57.74566 | 23.86399 | 35965 ft | 402 kts | 195° |
| 2026-05-06 15:11 | 57.69093 | 23.84595 | 35965 ft | 402 kts | 194° |
| 2026-05-06 15:12 | 57.63586 | 23.82796 | 35962 ft | 402 kts | 194° |
| 2026-05-06 15:12 | 57.58078 | 23.81000 | 35948 ft | 402 kts | 194° |
| 2026-05-06 15:13 | 57.52561 | 23.79207 | 35959 ft | 402 kts | 194° |
| 2026-05-06 15:13 | 57.47047 | 23.77419 | 35966 ft | 402 kts | 194° |
| 2026-05-06 15:14 | 57.41529 | 23.75652 | 35971 ft | 402 kts | 194° |
| 2026-05-06 15:14 | 57.36017 | 23.73875 | 35968 ft | 402 kts | 194° |
| 2026-05-06 15:15 | 57.30545 | 23.72103 | 35965 ft | 402 kts | 194° |
| 2026-05-06 15:15 | 57.25028 | 23.70330 | 35962 ft | 402 kts | 194° |
| 2026-05-06 15:16 | 57.19510 | 23.68575 | 35966 ft | 402 kts | 194° |
| 2026-05-06 15:16 | 57.13990 | 23.66825 | 35965 ft | 402 kts | 194° |
| 2026-05-06 15:17 | 57.08470 | 23.65070 | 35965 ft | 402 kts | 193° |
| 2026-05-06 15:17 | 57.02949 | 23.63316 | 35969 ft | 403 kts | 193° |
| 2026-05-06 15:18 | 56.97418 | 23.61567 | 35978 ft | 403 kts | 193° |
| 2026-05-06 15:18 | 56.91926 | 23.59842 | 35974 ft | 403 kts | 193° |
| 2026-05-06 15:19 | 56.86395 | 23.58118 | 35973 ft | 403 kts | 193° |
| 2026-05-06 15:19 | 56.80861 | 23.56388 | 35974 ft | 403 kts | 193° |
| 2026-05-06 15:20 | 56.75333 | 23.54658 | 35967 ft | 403 kts | 193° |
| 2026-05-06 15:20 | 56.69802 | 23.52934 | 35964 ft | 403 kts | 193° |
| 2026-05-06 15:21 | 56.64278 | 23.51222 | 35959 ft | 403 kts | 193° |
| 2026-05-06 15:21 | 56.58746 | 23.49521 | 35952 ft | 403 kts | 193° |
| 2026-05-06 15:22 | 56.53218 | 23.47818 | 35950 ft | 403 kts | 193° |
| 2026-05-06 15:22 | 56.47730 | 23.46139 | 35954 ft | 403 kts | 193° |
| 2026-05-06 15:23 | 56.42204 | 23.44450 | 35949 ft | 403 kts | 193° |
| 2026-05-06 15:23 | 56.36677 | 23.42756 | 35949 ft | 403 kts | 193° |
| 2026-05-06 15:24 | 56.31108 | 23.41436 | 35949 ft | 404 kts | 189° |
| 2026-05-06 15:24 | 56.25503 | 23.40499 | 35945 ft | 405 kts | 189° |
| 2026-05-06 15:25 | 56.19893 | 23.39570 | 35940 ft | 405 kts | 189° |
| 2026-05-06 15:25 | 56.14297 | 23.38551 | 35933 ft | 404 kts | 190° |
| 2026-05-06 15:26 | 56.08704 | 23.37485 | 35929 ft | 404 kts | 190° |
| 2026-05-06 15:26 | 56.03113 | 23.36435 | 35926 ft | 404 kts | 189° |
| 2026-05-06 15:27 | 55.97558 | 23.35415 | 35921 ft | 404 kts | 190° |
| 2026-05-06 15:27 | 55.91962 | 23.34390 | 35919 ft | 404 kts | 189° |
| 2026-05-06 15:28 | 55.86368 | 23.33369 | 35924 ft | 404 kts | 190° |
| 2026-05-06 15:28 | 55.80765 | 23.32339 | 35925 ft | 405 kts | 189° |
| 2026-05-06 15:29 | 55.75168 | 23.31317 | 35922 ft | 404 kts | 189° |
| 2026-05-06 15:29 | 55.69568 | 23.30296 | 35911 ft | 405 kts | 189° |
| 2026-05-06 15:30 | 55.63968 | 23.29277 | 35911 ft | 405 kts | 189° |
| 2026-05-06 15:30 | 55.58366 | 23.28265 | 35896 ft | 405 kts | 189° |
| 2026-05-06 15:31 | 55.52768 | 23.27248 | 35889 ft | 405 kts | 189° |
| 2026-05-06 15:31 | 55.47162 | 23.26236 | 35892 ft | 405 kts | 189° |
| 2026-05-06 15:32 | 55.38761 | 23.24734 | 35878 ft | 404 kts | 189° |
| 2026-05-06 15:32 | 55.33160 | 23.23734 | 35871 ft | 405 kts | 189° |
| 2026-05-06 15:33 | 55.27590 | 23.22746 | 35876 ft | 405 kts | 189° |
| 2026-05-06 15:33 | 55.21992 | 23.21749 | 35873 ft | 405 kts | 189° |
| 2026-05-06 15:34 | 55.16396 | 23.20759 | 35859 ft | 404 kts | 189° |
| 2026-05-06 15:34 | 55.10801 | 23.19772 | 35842 ft | 404 kts | 189° |
| 2026-05-06 15:35 | 55.05200 | 23.18785 | 35830 ft | 404 kts | 189° |
| 2026-05-06 15:35 | 54.99604 | 23.17802 | 35831 ft | 404 kts | 189° |
| 2026-05-06 15:36 | 54.94004 | 23.16826 | 35832 ft | 404 kts | 189° |
| 2026-05-06 15:36 | 54.88408 | 23.15835 | 35828 ft | 405 kts | 189° |
| 2026-05-06 15:37 | 54.82838 | 23.14865 | 35834 ft | 405 kts | 189° |
| 2026-05-06 15:37 | 54.77233 | 23.13905 | 35826 ft | 405 kts | 189° |
| 2026-05-06 15:38 | 54.71617 | 23.12939 | 35825 ft | 405 kts | 189° |
| 2026-05-06 15:38 | 54.66007 | 23.11961 | 35820 ft | 405 kts | 189° |
| 2026-05-06 15:39 | 54.60393 | 23.10984 | 35819 ft | 406 kts | 189° |
| 2026-05-06 15:39 | 54.54775 | 23.10019 | 35814 ft | 406 kts | 189° |
| 2026-05-06 15:40 | 54.49155 | 23.09055 | 35807 ft | 406 kts | 189° |
| 2026-05-06 15:40 | 54.43527 | 23.08097 | 35795 ft | 406 kts | 189° |
| 2026-05-06 15:41 | 54.37891 | 23.07136 | 35793 ft | 407 kts | 189° |
| 2026-05-06 15:41 | 54.32295 | 23.06175 | 35795 ft | 407 kts | 189° |
| 2026-05-06 15:42 | 54.26698 | 23.04894 | 35787 ft | 405 kts | 193° |
| 2026-05-06 15:42 | 54.21168 | 23.03038 | 35786 ft | 405 kts | 195° |
| 2026-05-06 15:43 | 54.15646 | 23.01116 | 35783 ft | 405 kts | 194° |
| 2026-05-06 15:43 | 54.10107 | 22.99307 | 35778 ft | 405 kts | 194° |
| 2026-05-06 15:44 | 54.04560 | 22.97572 | 35775 ft | 406 kts | 194° |
| 2026-05-06 15:44 | 53.99006 | 22.95838 | 35766 ft | 406 kts | 194° |
| 2026-05-06 15:45 | 53.93445 | 22.94103 | 35757 ft | 406 kts | 194° |
| 2026-05-06 15:45 | 53.87921 | 22.92374 | 35759 ft | 407 kts | 194° |
| 2026-05-06 15:46 | 53.82350 | 22.90625 | 35756 ft | 407 kts | 194° |
| 2026-05-06 15:46 | 53.76781 | 22.88884 | 35752 ft | 408 kts | 194° |
| 2026-05-06 15:47 | 53.71198 | 22.87144 | 35746 ft | 408 kts | 194° |
| 2026-05-06 15:47 | 53.65601 | 22.85409 | 35751 ft | 409 kts | 194° |
| 2026-05-06 15:48 | 53.60029 | 22.83689 | 35749 ft | 410 kts | 194° |
| 2026-05-06 15:48 | 53.54412 | 22.81963 | 35740 ft | 411 kts | 194° |
| 2026-05-06 15:49 | 53.48783 | 22.80222 | 35742 ft | 412 kts | 194° |
| 2026-05-06 15:49 | 53.43146 | 22.78487 | 35744 ft | 412 kts | 194° |
| 2026-05-06 15:50 | 53.37503 | 22.76762 | 35741 ft | 412 kts | 194° |
| 2026-05-06 15:50 | 53.31856 | 22.75036 | 35737 ft | 413 kts | 194° |
| 2026-05-06 15:51 | 53.26194 | 22.73315 | 35734 ft | 413 kts | 194° |
| 2026-05-06 15:51 | 53.20570 | 22.71609 | 35735 ft | 414 kts | 194° |
| 2026-05-06 15:52 | 53.14903 | 22.69891 | 35738 ft | 415 kts | 194° |
| 2026-05-06 15:52 | 53.09216 | 22.68173 | 35739 ft | 415 kts | 194° |
| 2026-05-06 15:53 | 53.03524 | 22.66466 | 35755 ft | 416 kts | 194° |
| 2026-05-06 15:53 | 52.97831 | 22.64759 | 35758 ft | 416 kts | 194° |
| 2026-05-06 15:54 | 52.92140 | 22.63046 | 35755 ft | 416 kts | 194° |
| 2026-05-06 15:54 | 52.86438 | 22.61347 | 35751 ft | 417 kts | 194° |
| 2026-05-06 15:55 | 52.80730 | 22.59655 | 35752 ft | 417 kts | 194° |
| 2026-05-06 15:55 | 52.75019 | 22.57953 | 35747 ft | 417 kts | 194° |
| 2026-05-06 15:56 | 52.69305 | 22.56256 | 35751 ft | 417 kts | 194° |
| 2026-05-06 15:56 | 52.63623 | 22.54574 | 35754 ft | 418 kts | 194° |
| 2026-05-06 15:57 | 52.57882 | 22.53010 | 35755 ft | 419 kts | 192° |
| 2026-05-06 15:57 | 52.52089 | 22.51819 | 35754 ft | 420 kts | 190° |
| 2026-05-06 15:58 | 52.46279 | 22.50715 | 35762 ft | 420 kts | 190° |
| 2026-05-06 15:58 | 52.40468 | 22.49549 | 35761 ft | 420 kts | 191° |
| 2026-05-06 15:59 | 52.34658 | 22.48324 | 35764 ft | 422 kts | 191° |
| 2026-05-06 15:59 | 52.28844 | 22.47100 | 35765 ft | 421 kts | 191° |
| 2026-05-06 16:00 | 52.23020 | 22.45887 | 35767 ft | 422 kts | 191° |
| 2026-05-06 16:00 | 52.17229 | 22.44691 | 35768 ft | 422 kts | 191° |
| 2026-05-06 16:01 | 52.11397 | 22.43479 | 35773 ft | 423 kts | 191° |
| 2026-05-06 16:01 | 52.05547 | 22.42258 | 35791 ft | 423 kts | 191° |
| 2026-05-06 16:02 | 51.99703 | 22.41055 | 35785 ft | 423 kts | 191° |
| 2026-05-06 16:02 | 51.93860 | 22.39867 | 35788 ft | 423 kts | 191° |
| 2026-05-06 16:03 | 51.88053 | 22.38685 | 35786 ft | 423 kts | 191° |
| 2026-05-06 16:03 | 51.82204 | 22.37496 | 35789 ft | 424 kts | 191° |
| 2026-05-06 16:04 | 51.76351 | 22.36302 | 35790 ft | 424 kts | 191° |
| 2026-05-06 16:04 | 51.70486 | 22.35109 | 35783 ft | 425 kts | 191° |
| 2026-05-06 16:05 | 51.64616 | 22.33919 | 35785 ft | 425 kts | 191° |
| 2026-05-06 16:05 | 51.58780 | 22.32738 | 35780 ft | 426 kts | 191° |
| 2026-05-06 16:06 | 51.52895 | 22.31553 | 35780 ft | 426 kts | 191° |
| 2026-05-06 16:06 | 51.47005 | 22.30380 | 35786 ft | 427 kts | 191° |
| 2026-05-06 16:07 | 51.41107 | 22.29210 | 35784 ft | 427 kts | 191° |
| 2026-05-06 16:07 | 51.35203 | 22.28034 | 35781 ft | 427 kts | 191° |
| 2026-05-06 16:08 | 51.29339 | 22.26856 | 35785 ft | 428 kts | 191° |
| 2026-05-06 16:08 | 51.23433 | 22.25676 | 35784 ft | 428 kts | 191° |
| 2026-05-06 16:09 | 51.17511 | 22.24496 | 35791 ft | 428 kts | 191° |
| 2026-05-06 16:09 | 51.11593 | 22.23326 | 35790 ft | 429 kts | 191° |
| 2026-05-06 16:10 | 51.05669 | 22.22167 | 35788 ft | 429 kts | 191° |
| 2026-05-06 16:10 | 50.99747 | 22.21007 | 35794 ft | 429 kts | 191° |
| 2026-05-06 16:11 | 50.93857 | 22.19851 | 35793 ft | 429 kts | 191° |
| 2026-05-06 16:11 | 50.87930 | 22.18687 | 35798 ft | 430 kts | 190° |
| 2026-05-06 16:12 | 50.81990 | 22.17529 | 35800 ft | 430 kts | 190° |
| 2026-05-06 16:12 | 50.76050 | 22.16374 | 35801 ft | 430 kts | 190° |
| 2026-05-06 16:13 | 50.71109 | 22.15423 | 35801 ft | 431 kts | 190° |
| 2026-05-06 16:13 | 50.65153 | 22.14278 | 35802 ft | 431 kts | 190° |
| 2026-05-06 16:14 | 50.59190 | 22.13117 | 35807 ft | 432 kts | 190° |
| 2026-05-06 16:14 | 50.53225 | 22.11958 | 35807 ft | 432 kts | 190° |
| 2026-05-06 16:15 | 50.47258 | 22.10823 | 35810 ft | 432 kts | 190° |
| 2026-05-06 16:15 | 50.41278 | 22.09680 | 35813 ft | 433 kts | 190° |
| 2026-05-06 16:16 | 50.35341 | 22.08540 | 35817 ft | 433 kts | 190° |
| 2026-05-06 16:16 | 50.29361 | 22.07394 | 35821 ft | 433 kts | 190° |
| 2026-05-06 16:17 | 50.23372 | 22.06253 | 35823 ft | 433 kts | 190° |
| 2026-05-06 16:17 | 50.17385 | 22.05122 | 35824 ft | 434 kts | 190° |
| 2026-05-06 16:18 | 50.11390 | 22.03987 | 35825 ft | 434 kts | 190° |
| 2026-05-06 16:18 | 50.05396 | 22.02855 | 35823 ft | 434 kts | 190° |
| 2026-05-06 16:19 | 49.99434 | 22.01733 | 35830 ft | 434 kts | 190° |
| 2026-05-06 16:19 | 49.93429 | 22.00608 | 35830 ft | 435 kts | 190° |
| 2026-05-06 16:20 | 49.87417 | 21.99485 | 35835 ft | 435 kts | 190° |
| 2026-05-06 16:20 | 49.81399 | 21.98364 | 35845 ft | 436 kts | 190° |
| 2026-05-06 16:21 | 49.75389 | 21.97243 | 35851 ft | 435 kts | 190° |
| 2026-05-06 16:21 | 49.69369 | 21.96116 | 35850 ft | 436 kts | 190° |
| 2026-05-06 16:22 | 49.63387 | 21.95003 | 35858 ft | 436 kts | 190° |
| 2026-05-06 16:22 | 49.57359 | 21.93883 | 35864 ft | 436 kts | 190° |
| 2026-05-06 16:23 | 49.51330 | 21.92770 | 35868 ft | 436 kts | 190° |
| 2026-05-06 16:23 | 49.45300 | 21.91665 | 35871 ft | 437 kts | 190° |
| 2026-05-06 16:24 | 49.39257 | 21.90558 | 35881 ft | 437 kts | 190° |
| 2026-05-06 16:24 | 49.33220 | 21.89442 | 35897 ft | 437 kts | 190° |
| 2026-05-06 16:25 | 49.27223 | 21.88341 | 35884 ft | 437 kts | 190° |
| 2026-05-06 16:25 | 49.21183 | 21.87251 | 35883 ft | 437 kts | 190° |
| 2026-05-06 16:26 | 49.15134 | 21.86159 | 35879 ft | 437 kts | 190° |
| 2026-05-06 16:26 | 49.09090 | 21.85055 | 35881 ft | 438 kts | 190° |
| 2026-05-06 16:27 | 49.03039 | 21.83949 | 35879 ft | 438 kts | 190° |
| 2026-05-06 16:27 | 48.97026 | 21.82864 | 35878 ft | 438 kts | 190° |
| 2026-05-06 16:28 | 48.90967 | 21.81818 | 35876 ft | 439 kts | 186° |
| 2026-05-06 16:28 | 48.84835 | 21.82491 | 35870 ft | 445 kts | 175° |
| 2026-05-06 16:29 | 48.78693 | 21.83802 | 35873 ft | 445 kts | 175° |
| 2026-05-06 16:29 | 48.72556 | 21.85088 | 35891 ft | 445 kts | 175° |
| 2026-05-06 16:30 | 48.67454 | 21.86163 | 35882 ft | 446 kts | 175° |
| 2026-05-06 16:30 | 48.60263 | 21.87676 | 35898 ft | 446 kts | 175° |
| 2026-05-06 16:31 | 48.57189 | 21.88321 | 36012 ft | 446 kts | 175° |
| 2026-05-06 16:31 | 48.54114 | 21.88965 | 36251 ft | 447 kts | 175° |
| 2026-05-06 16:31 | 48.51035 | 21.89614 | 36490 ft | 447 kts | 175° |
| 2026-05-06 16:31 | 48.47953 | 21.90265 | 36732 ft | 447 kts | 175° |
| 2026-05-06 16:32 | 48.44866 | 21.90918 | 36884 ft | 448 kts | 175° |
| 2026-05-06 16:32 | 48.41780 | 21.91561 | 36907 ft | 448 kts | 175° |
| 2026-05-06 16:32 | 48.35650 | 21.92838 | 36902 ft | 448 kts | 174° |
| 2026-05-06 16:33 | 48.29506 | 21.94587 | 36905 ft | 450 kts | 170° |
| 2026-05-06 16:34 | 48.20334 | 21.97740 | 36911 ft | 451 kts | 170° |
| 2026-05-06 16:34 | 48.14209 | 21.99727 | 36910 ft | 450 kts | 171° |
| 2026-05-06 16:35 | 48.08070 | 22.01634 | 36909 ft | 451 kts | 171° |
| 2026-05-06 16:35 | 48.01925 | 22.03537 | 36905 ft | 451 kts | 171° |
| 2026-05-06 16:36 | 47.95774 | 22.05459 | 36919 ft | 452 kts | 171° |
| 2026-05-06 16:36 | 47.89663 | 22.07368 | 36922 ft | 452 kts | 171° |
| 2026-05-06 16:37 | 47.83506 | 22.09290 | 36918 ft | 452 kts | 171° |
| 2026-05-06 16:37 | 47.77346 | 22.11207 | 36919 ft | 452 kts | 171° |
| 2026-05-06 16:38 | 47.71191 | 22.13116 | 36914 ft | 452 kts | 170° |
| 2026-05-06 16:38 | 47.65031 | 22.15032 | 36916 ft | 452 kts | 171° |
| 2026-05-06 16:39 | 47.58871 | 22.16938 | 36919 ft | 452 kts | 171° |
| 2026-05-06 16:39 | 47.52705 | 22.18832 | 36923 ft | 453 kts | 171° |
| 2026-05-06 16:40 | 47.46577 | 22.20717 | 36929 ft | 453 kts | 170° |
| 2026-05-06 16:40 | 47.40404 | 22.22612 | 36936 ft | 453 kts | 171° |
| 2026-05-06 16:41 | 47.34231 | 22.24494 | 36937 ft | 453 kts | 171° |
| 2026-05-06 16:41 | 47.28059 | 22.26381 | 36937 ft | 453 kts | 171° |
| 2026-05-06 16:42 | 47.21891 | 22.28260 | 36932 ft | 453 kts | 170° |
| 2026-05-06 16:42 | 47.15710 | 22.30133 | 36930 ft | 453 kts | 170° |
| 2026-05-06 16:43 | 47.09528 | 22.32004 | 36938 ft | 454 kts | 170° |
| 2026-05-06 16:43 | 47.03341 | 22.33883 | 36941 ft | 454 kts | 170° |
| 2026-05-06 16:44 | 46.97148 | 22.35741 | 36952 ft | 454 kts | 170° |
| 2026-05-06 16:44 | 46.91000 | 22.37584 | 36946 ft | 454 kts | 170° |
| 2026-05-06 16:45 | 46.84813 | 22.39437 | 36940 ft | 454 kts | 170° |
| 2026-05-06 16:45 | 46.78612 | 22.41296 | 36950 ft | 455 kts | 170° |
| 2026-05-06 16:46 | 46.72411 | 22.43150 | 36966 ft | 455 kts | 170° |
| 2026-05-06 16:46 | 46.66209 | 22.45012 | 36966 ft | 455 kts | 170° |
| 2026-05-06 16:47 | 46.59998 | 22.46864 | 36964 ft | 455 kts | 170° |
| 2026-05-06 16:47 | 46.53788 | 22.48705 | 36960 ft | 455 kts | 170° |
| 2026-05-06 16:48 | 46.47617 | 22.50521 | 36957 ft | 456 kts | 170° |
| 2026-05-06 16:48 | 46.41396 | 22.52358 | 36953 ft | 456 kts | 170° |
| 2026-05-06 16:49 | 46.35171 | 22.54189 | 36959 ft | 457 kts | 170° |
| 2026-05-06 16:49 | 46.28940 | 22.56026 | 36964 ft | 457 kts | 170° |
| 2026-05-06 16:50 | 46.22700 | 22.57861 | 36973 ft | 458 kts | 170° |
| 2026-05-06 16:50 | 46.16495 | 22.59673 | 36970 ft | 458 kts | 170° |
| 2026-05-06 16:51 | 46.10251 | 22.61492 | 36966 ft | 458 kts | 170° |
| 2026-05-06 16:51 | 46.03989 | 22.63303 | 36962 ft | 459 kts | 170° |
| 2026-05-06 16:52 | 45.97734 | 22.65125 | 36964 ft | 459 kts | 170° |
| 2026-05-06 16:52 | 45.91477 | 22.66944 | 36955 ft | 459 kts | 170° |
| 2026-05-06 16:53 | 45.85257 | 22.68747 | 36955 ft | 459 kts | 170° |
| 2026-05-06 16:53 | 45.78983 | 22.70548 | 36949 ft | 460 kts | 170° |
| 2026-05-06 16:54 | 45.72709 | 22.72357 | 36955 ft | 460 kts | 170° |
| 2026-05-06 16:54 | 45.66430 | 22.74161 | 36960 ft | 461 kts | 170° |
| 2026-05-06 16:55 | 45.60133 | 22.75961 | 36974 ft | 461 kts | 170° |
| 2026-05-06 16:55 | 45.53880 | 22.77747 | 36984 ft | 461 kts | 169° |
| 2026-05-06 16:56 | 45.47587 | 22.79556 | 36989 ft | 461 kts | 169° |
| 2026-05-06 16:56 | 45.41285 | 22.81349 | 36984 ft | 462 kts | 170° |
| 2026-05-06 16:57 | 45.34988 | 22.83127 | 36981 ft | 462 kts | 170° |
| 2026-05-06 16:57 | 45.28684 | 22.84912 | 36981 ft | 462 kts | 169° |
| 2026-05-06 16:58 | 45.22413 | 22.86691 | 36975 ft | 463 kts | 170° |
| 2026-05-06 16:58 | 45.16099 | 22.88474 | 36975 ft | 463 kts | 169° |
| 2026-05-06 16:59 | 45.09769 | 22.90251 | 36972 ft | 464 kts | 170° |
| 2026-05-06 16:59 | 45.03432 | 22.92030 | 36970 ft | 464 kts | 170° |
| 2026-05-06 17:00 | 44.97105 | 22.93802 | 36965 ft | 464 kts | 169° |
| 2026-05-06 17:00 | 44.90771 | 22.95570 | 36953 ft | 464 kts | 170° |
| 2026-05-06 17:01 | 44.84470 | 22.97322 | 36946 ft | 465 kts | 170° |
| 2026-05-06 17:01 | 44.78125 | 22.99092 | 36947 ft | 465 kts | 169° |
| 2026-05-06 17:02 | 44.71778 | 23.00854 | 36943 ft | 465 kts | 169° |
| 2026-05-06 17:02 | 44.65423 | 23.02612 | 36939 ft | 465 kts | 169° |
| 2026-05-06 17:03 | 44.59067 | 23.04363 | 36938 ft | 466 kts | 170° |
| 2026-05-06 17:03 | 44.52695 | 23.06119 | 36943 ft | 466 kts | 169° |
| 2026-05-06 17:04 | 44.46334 | 23.07879 | 36942 ft | 467 kts | 170° |
| 2026-05-06 17:04 | 44.39953 | 23.09629 | 36949 ft | 467 kts | 170° |
| 2026-05-06 17:05 | 44.33620 | 23.11361 | 36946 ft | 467 kts | 170° |
| 2026-05-06 17:05 | 44.27241 | 23.13106 | 36935 ft | 467 kts | 170° |
| 2026-05-06 17:06 | 44.20867 | 23.14846 | 36934 ft | 467 kts | 170° |
| 2026-05-06 17:06 | 44.14493 | 23.16582 | 36930 ft | 467 kts | 170° |
| 2026-05-06 17:07 | 44.08109 | 23.18317 | 36933 ft | 467 kts | 170° |
| 2026-05-06 17:07 | 44.01722 | 23.20038 | 36930 ft | 468 kts | 170° |
| 2026-05-06 17:08 | 43.95332 | 23.21764 | 36938 ft | 468 kts | 170° |
| 2026-05-06 17:08 | 43.88980 | 23.23487 | 36933 ft | 468 kts | 170° |
| 2026-05-06 17:09 | 43.82531 | 23.24207 | 36931 ft | 464 kts | 187° |
| 2026-05-06 17:09 | 43.76242 | 23.22427 | 36925 ft | 461 kts | 197° |
| 2026-05-06 17:10 | 43.70037 | 23.20160 | 36933 ft | 461 kts | 197° |
| 2026-05-06 17:10 | 43.63828 | 23.17936 | 36939 ft | 461 kts | 197° |
| 2026-05-06 17:10 | 43.60729 | 23.16827 | 37121 ft | 460 kts | 197° |
| 2026-05-06 17:11 | 43.57629 | 23.15716 | 37373 ft | 460 kts | 197° |
| 2026-05-06 17:11 | 43.54537 | 23.14607 | 37638 ft | 459 kts | 197° |
| 2026-05-06 17:11 | 43.51446 | 23.13497 | 37881 ft | 459 kts | 197° |
| 2026-05-06 17:12 | 43.45275 | 23.11279 | 37963 ft | 458 kts | 197° |
| 2026-05-06 17:12 | 43.39151 | 23.09090 | 37965 ft | 458 kts | 197° |
| 2026-05-06 17:13 | 43.33009 | 23.06802 | 37973 ft | 457 kts | 198° |
| 2026-05-06 17:13 | 43.26893 | 23.04430 | 37969 ft | 457 kts | 199° |
| 2026-05-06 17:14 | 43.20771 | 23.02067 | 37983 ft | 456 kts | 199° |
| 2026-05-06 17:14 | 43.14649 | 22.99736 | 37976 ft | 457 kts | 198° |
| 2026-05-06 17:15 | 43.08571 | 22.97443 | 37988 ft | 456 kts | 198° |
| 2026-05-06 17:15 | 43.02443 | 22.95125 | 37985 ft | 456 kts | 198° |
| 2026-05-06 17:16 | 42.96328 | 22.92813 | 37995 ft | 456 kts | 198° |
| 2026-05-06 17:16 | 42.90213 | 22.90508 | 37994 ft | 456 kts | 199° |
| 2026-05-06 17:17 | 42.84109 | 22.88213 | 37995 ft | 455 kts | 199° |
| 2026-05-06 17:17 | 42.77994 | 22.85922 | 37991 ft | 455 kts | 199° |
| 2026-05-06 17:18 | 42.71895 | 22.83626 | 37995 ft | 455 kts | 199° |
| 2026-05-06 17:18 | 42.65791 | 22.81337 | 37868 ft | 452 kts | 199° |
| 2026-05-06 17:18 | 42.62809 | 22.80230 | 38012 ft | 440 kts | 199° |
| 2026-05-06 17:19 | 42.59858 | 22.79138 | 38005 ft | 440 kts | 199° |
| 2026-05-06 17:19 | 42.53948 | 22.76944 | 38004 ft | 441 kts | 199° |
| 2026-05-06 17:20 | 42.48044 | 22.74745 | 38009 ft | 440 kts | 199° |
| 2026-05-06 17:20 | 42.42135 | 22.72547 | 38014 ft | 440 kts | 199° |
| 2026-05-06 17:21 | 42.36264 | 22.70369 | 38014 ft | 440 kts | 199° |
| 2026-05-06 17:21 | 42.30348 | 22.68186 | 38011 ft | 441 kts | 199° |
| 2026-05-06 17:22 | 42.24435 | 22.66008 | 38020 ft | 441 kts | 199° |
| 2026-05-06 17:22 | 42.18512 | 22.63834 | 38012 ft | 441 kts | 199° |
| 2026-05-06 17:23 | 42.12591 | 22.61659 | 38023 ft | 441 kts | 199° |
| 2026-05-06 17:23 | 42.07571 | 22.60380 | 38021 ft | 446 kts | 187° |
| 2026-05-06 17:24 | 42.01374 | 22.59819 | 38017 ft | 446 kts | 187° |
| 2026-05-06 17:24 | 41.95178 | 22.59240 | 38021 ft | 446 kts | 187° |
| 2026-05-06 17:25 | 41.88982 | 22.58650 | 38021 ft | 446 kts | 187° |
| 2026-05-06 17:25 | 41.82828 | 22.58072 | 38024 ft | 446 kts | 187° |
| 2026-05-06 17:26 | 41.76640 | 22.57507 | 38025 ft | 446 kts | 187° |
| 2026-05-06 17:26 | 41.70444 | 22.56936 | 38023 ft | 446 kts | 187° |
| 2026-05-06 17:27 | 41.64263 | 22.56368 | 38025 ft | 446 kts | 187° |
| 2026-05-06 17:27 | 41.58070 | 22.55795 | 38020 ft | 446 kts | 187° |
| 2026-05-06 17:28 | 41.51914 | 22.55225 | 38019 ft | 446 kts | 187° |
| 2026-05-06 17:28 | 41.45717 | 22.54660 | 38019 ft | 446 kts | 187° |
| 2026-05-06 17:29 | 41.39514 | 22.54097 | 38018 ft | 447 kts | 187° |
| 2026-05-06 17:29 | 41.33307 | 22.53532 | 38023 ft | 447 kts | 187° |
| 2026-05-06 17:30 | 41.27100 | 22.52976 | 38017 ft | 447 kts | 187° |
| 2026-05-06 17:30 | 41.23992 | 22.52690 | 37876 ft | 448 kts | 187° |
| 2026-05-06 17:30 | 41.20883 | 22.52401 | 37491 ft | 448 kts | 187° |
| 2026-05-06 17:30 | 41.17779 | 22.52113 | 36971 ft | 445 kts | 188° |
| 2026-05-06 17:31 | 41.14694 | 22.51845 | 36451 ft | 444 kts | 185° |
| 2026-05-06 17:31 | 41.11633 | 22.52328 | 35996 ft | 447 kts | 167° |
| 2026-05-06 17:31 | 41.08709 | 22.53586 | 35459 ft | 448 kts | 163° |
| 2026-05-06 17:31 | 41.05805 | 22.55082 | 34951 ft | 447 kts | 160° |
| 2026-05-06 17:32 | 41.02953 | 22.56702 | 34472 ft | 446 kts | 159° |
| 2026-05-06 17:32 | 41.00125 | 22.58362 | 33981 ft | 444 kts | 159° |
| 2026-05-06 17:32 | 40.97300 | 22.60002 | 33440 ft | 441 kts | 159° |
| 2026-05-06 17:32 | 40.94489 | 22.61583 | 32935 ft | 438 kts | 160° |
| 2026-05-06 17:33 | 40.91680 | 22.63111 | 32449 ft | 435 kts | 161° |
| 2026-05-06 17:33 | 40.88878 | 22.64598 | 31971 ft | 432 kts | 161° |
| 2026-05-06 17:33 | 40.86094 | 22.66057 | 31520 ft | 429 kts | 161° |
| 2026-05-06 17:33 | 40.83325 | 22.67507 | 31067 ft | 427 kts | 161° |
| 2026-05-06 17:34 | 40.80572 | 22.68955 | 30645 ft | 425 kts | 161° |
| 2026-05-06 17:34 | 40.77869 | 22.70384 | 30237 ft | 423 kts | 161° |
| 2026-05-06 17:34 | 40.75112 | 22.71847 | 29787 ft | 420 kts | 161° |
| 2026-05-06 17:34 | 40.72444 | 22.73265 | 29348 ft | 418 kts | 161° |
| 2026-05-06 17:35 | 40.69755 | 22.74692 | 28926 ft | 416 kts | 161° |
| 2026-05-06 17:35 | 40.67082 | 22.76108 | 28526 ft | 413 kts | 161° |
| 2026-05-06 17:35 | 40.64421 | 22.77518 | 28121 ft | 410 kts | 161° |
| 2026-05-06 17:36 | 40.59153 | 22.80303 | 27311 ft | 406 kts | 161° |
| 2026-05-06 17:36 | 40.56541 | 22.81683 | 26903 ft | 403 kts | 161° |
| 2026-05-06 17:36 | 40.53944 | 22.83054 | 26488 ft | 401 kts | 161° |
| 2026-05-06 17:36 | 40.51362 | 22.84414 | 26085 ft | 399 kts | 161° |
| 2026-05-06 17:37 | 40.48792 | 22.85768 | 25675 ft | 397 kts | 161° |
| 2026-05-06 17:37 | 40.46237 | 22.87114 | 25246 ft | 395 kts | 161° |
| 2026-05-06 17:37 | 40.43666 | 22.88464 | 24632 ft | 400 kts | 161° |
| 2026-05-06 17:37 | 40.41026 | 22.89845 | 24392 ft | 421 kts | 161° |
| 2026-05-06 17:38 | 40.38260 | 22.91287 | 24151 ft | 429 kts | 161° |
| 2026-05-06 17:38 | 40.35490 | 22.92733 | 23924 ft | 428 kts | 161° |
| 2026-05-06 17:38 | 40.32725 | 22.94181 | 23697 ft | 427 kts | 161° |
| 2026-05-06 17:38 | 40.29967 | 22.95627 | 23447 ft | 426 kts | 160° |
| 2026-05-06 17:39 | 40.27221 | 22.97069 | 23178 ft | 424 kts | 160° |
| 2026-05-06 17:39 | 40.24495 | 22.98501 | 22913 ft | 422 kts | 160° |
| 2026-05-06 17:39 | 40.21778 | 22.99925 | 22647 ft | 420 kts | 160° |
| 2026-05-06 17:39 | 40.19108 | 23.01319 | 22391 ft | 418 kts | 160° |
| 2026-05-06 17:40 | 40.16416 | 23.02720 | 22133 ft | 416 kts | 160° |
| 2026-05-06 17:40 | 40.13733 | 23.04114 | 21876 ft | 414 kts | 160° |
| 2026-05-06 17:40 | 40.11066 | 23.05502 | 21619 ft | 412 kts | 160° |
| 2026-05-06 17:40 | 40.08408 | 23.06887 | 21364 ft | 410 kts | 160° |
| 2026-05-06 17:41 | 40.05765 | 23.08258 | 21113 ft | 408 kts | 160° |
| 2026-05-06 17:41 | 40.03132 | 23.09622 | 20864 ft | 406 kts | 160° |
| 2026-05-06 17:41 | 40.00513 | 23.10980 | 20614 ft | 404 kts | 160° |
| 2026-05-06 17:41 | 39.97905 | 23.12329 | 20372 ft | 403 kts | 160° |
| 2026-05-06 17:42 | 39.95304 | 23.13673 | 20134 ft | 401 kts | 160° |
| 2026-05-06 17:42 | 39.92719 | 23.15009 | 19887 ft | 399 kts | 160° |
| 2026-05-06 17:42 | 39.90142 | 23.16342 | 19648 ft | 397 kts | 160° |
| 2026-05-06 17:42 | 39.87579 | 23.17666 | 19414 ft | 396 kts | 160° |
| 2026-05-06 17:43 | 39.85019 | 23.18983 | 19176 ft | 394 kts | 160° |
| 2026-05-06 17:43 | 39.82474 | 23.20291 | 18937 ft | 393 kts | 160° |
| 2026-05-06 17:43 | 39.79940 | 23.21596 | 18710 ft | 391 kts | 160° |
| 2026-05-06 17:43 | 39.77415 | 23.22901 | 18478 ft | 390 kts | 160° |
| 2026-05-06 17:44 | 39.74937 | 23.24176 | 18242 ft | 388 kts | 160° |
| 2026-05-06 17:44 | 39.72431 | 23.25464 | 17973 ft | 387 kts | 160° |
| 2026-05-06 17:44 | 39.69936 | 23.26745 | 17706 ft | 384 kts | 160° |
| 2026-05-06 17:44 | 39.67453 | 23.28014 | 17445 ft | 382 kts | 160° |
| 2026-05-06 17:45 | 39.64986 | 23.29277 | 17185 ft | 380 kts | 160° |
| 2026-05-06 17:45 | 39.62529 | 23.30535 | 16929 ft | 378 kts | 160° |
| 2026-05-06 17:45 | 39.60089 | 23.31788 | 16673 ft | 377 kts | 160° |
| 2026-05-06 17:45 | 39.57657 | 23.33039 | 16419 ft | 375 kts | 160° |
| 2026-05-06 17:46 | 39.55242 | 23.34279 | 16169 ft | 373 kts | 160° |
| 2026-05-06 17:46 | 39.52834 | 23.35509 | 15919 ft | 371 kts | 160° |
| 2026-05-06 17:46 | 39.50437 | 23.36728 | 15669 ft | 369 kts | 160° |
| 2026-05-06 17:46 | 39.48057 | 23.37940 | 15417 ft | 367 kts | 159° |
| 2026-05-06 17:47 | 39.45683 | 23.39148 | 15188 ft | 365 kts | 159° |
| 2026-05-06 17:47 | 39.43323 | 23.40348 | 14936 ft | 364 kts | 159° |
| 2026-05-06 17:47 | 39.40972 | 23.41547 | 14697 ft | 362 kts | 159° |
| 2026-05-06 17:47 | 39.38635 | 23.42737 | 14459 ft | 360 kts | 159° |
| 2026-05-06 17:48 | 39.36340 | 23.43902 | 14224 ft | 359 kts | 159° |
| 2026-05-06 17:48 | 39.34024 | 23.45076 | 13984 ft | 357 kts | 159° |
| 2026-05-06 17:48 | 39.31716 | 23.46244 | 13744 ft | 355 kts | 159° |
| 2026-05-06 17:48 | 39.29422 | 23.47406 | 13476 ft | 354 kts | 159° |
| 2026-05-06 17:49 | 39.27136 | 23.48566 | 13213 ft | 352 kts | 159° |
| 2026-05-06 17:49 | 39.24863 | 23.49718 | 12951 ft | 350 kts | 159° |
| 2026-05-06 17:49 | 39.22606 | 23.50860 | 12695 ft | 348 kts | 159° |
| 2026-05-06 17:49 | 39.20353 | 23.51997 | 12440 ft | 346 kts | 159° |
| 2026-05-06 17:50 | 39.18113 | 23.53126 | 12186 ft | 345 kts | 159° |
| 2026-05-06 17:50 | 39.15884 | 23.54251 | 11933 ft | 343 kts | 159° |
| 2026-05-06 17:50 | 39.13666 | 23.55371 | 11686 ft | 341 kts | 159° |
| 2026-05-06 17:50 | 39.11461 | 23.56486 | 11436 ft | 340 kts | 159° |
| 2026-05-06 17:51 | 39.09269 | 23.57593 | 11193 ft | 338 kts | 159° |
| 2026-05-06 17:51 | 39.07082 | 23.58695 | 10950 ft | 336 kts | 159° |
| 2026-05-06 17:51 | 39.04908 | 23.59788 | 10711 ft | 335 kts | 159° |
| 2026-05-06 17:51 | 39.02742 | 23.60876 | 10465 ft | 334 kts | 159° |
| 2026-05-06 17:52 | 39.00586 | 23.61959 | 10229 ft | 332 kts | 159° |
| 2026-05-06 17:52 | 38.98473 | 23.63022 | 10008 ft | 329 kts | 159° |
| 2026-05-06 17:52 | 38.96383 | 23.64070 | 9865 ft | 316 kts | 160° |
| 2026-05-06 17:52 | 38.94329 | 23.64893 | 9745 ft | 303 kts | 167° |
| 2026-05-06 17:53 | 38.92301 | 23.65410 | 9610 ft | 293 kts | 173° |
| 2026-05-06 17:53 | 38.90275 | 23.65717 | 9483 ft | 293 kts | 174° |
| 2026-05-06 17:53 | 38.88249 | 23.66014 | 9353 ft | 293 kts | 174° |
| 2026-05-06 17:53 | 38.86227 | 23.66311 | 9224 ft | 292 kts | 174° |
| 2026-05-06 17:54 | 38.84212 | 23.66608 | 9099 ft | 291 kts | 174° |
| 2026-05-06 17:54 | 38.82201 | 23.66904 | 8968 ft | 291 kts | 174° |
| 2026-05-06 17:54 | 38.80191 | 23.67197 | 8846 ft | 290 kts | 174° |
| 2026-05-06 17:54 | 38.78188 | 23.67488 | 8715 ft | 289 kts | 174° |
| 2026-05-06 17:55 | 38.76190 | 23.67777 | 8592 ft | 289 kts | 174° |
| 2026-05-06 17:55 | 38.74197 | 23.68068 | 8460 ft | 288 kts | 174° |
| 2026-05-06 17:55 | 38.72236 | 23.68356 | 8340 ft | 287 kts | 175° |
| 2026-05-06 17:55 | 38.70250 | 23.68648 | 8210 ft | 287 kts | 174° |
| 2026-05-06 17:56 | 38.68268 | 23.68940 | 8085 ft | 288 kts | 174° |
| 2026-05-06 17:56 | 38.66283 | 23.69232 | 8004 ft | 286 kts | 175° |
| 2026-05-06 17:56 | 38.64301 | 23.69520 | 8008 ft | 286 kts | 175° |
| 2026-05-06 17:56 | 38.62324 | 23.69808 | 8012 ft | 286 kts | 175° |
| 2026-05-06 17:57 | 38.60346 | 23.70095 | 8015 ft | 286 kts | 174° |
| 2026-05-06 17:57 | 38.58370 | 23.70384 | 8016 ft | 286 kts | 174° |
| 2026-05-06 17:57 | 38.56395 | 23.70672 | 8014 ft | 286 kts | 174° |
| 2026-05-06 17:57 | 38.54419 | 23.70959 | 8013 ft | 286 kts | 174° |
| 2026-05-06 17:58 | 38.52443 | 23.71246 | 8016 ft | 286 kts | 174° |
| 2026-05-06 17:58 | 38.50470 | 23.71534 | 8016 ft | 286 kts | 174° |
| 2026-05-06 17:58 | 38.48494 | 23.71823 | 8017 ft | 286 kts | 174° |
| 2026-05-06 17:58 | 38.46522 | 23.72111 | 8019 ft | 286 kts | 174° |
| 2026-05-06 17:59 | 38.44548 | 23.72399 | 8022 ft | 285 kts | 174° |
| 2026-05-06 17:59 | 38.42573 | 23.72687 | 8025 ft | 285 kts | 174° |
| 2026-05-06 17:59 | 38.40627 | 23.72974 | 8021 ft | 285 kts | 174° |
| 2026-05-06 17:59 | 38.38653 | 23.73261 | 8026 ft | 285 kts | 174° |
| 2026-05-06 18:00 | 38.36683 | 23.73547 | 8030 ft | 286 kts | 174° |
| 2026-05-06 18:00 | 38.34707 | 23.73836 | 8027 ft | 286 kts | 174° |
| 2026-05-06 18:00 | 38.32733 | 23.74123 | 8029 ft | 286 kts | 175° |
| 2026-05-06 18:00 | 38.30758 | 23.74408 | 8036 ft | 286 kts | 175° |
| 2026-05-06 18:01 | 38.28781 | 23.74694 | 8031 ft | 286 kts | 174° |
| 2026-05-06 18:01 | 38.26807 | 23.74982 | 8034 ft | 286 kts | 174° |
| 2026-05-06 18:01 | 38.24832 | 23.75268 | 8033 ft | 286 kts | 174° |
| 2026-05-06 18:01 | 38.22856 | 23.75552 | 8034 ft | 286 kts | 174° |
| 2026-05-06 18:02 | 38.20884 | 23.75848 | 8036 ft | 286 kts | 172° |
| 2026-05-06 18:02 | 38.18929 | 23.76364 | 8036 ft | 287 kts | 166° |
| 2026-05-06 18:02 | 38.17028 | 23.77152 | 8033 ft | 287 kts | 159° |
| 2026-05-06 18:02 | 38.15222 | 23.78194 | 8034 ft | 288 kts | 153° |
| 2026-05-06 18:03 | 38.13496 | 23.79494 | 8036 ft | 289 kts | 147° |
| 2026-05-06 18:03 | 38.11866 | 23.80931 | 8036 ft | 289 kts | 146° |
| 2026-05-06 18:03 | 38.10216 | 23.82381 | 8036 ft | 289 kts | 146° |
| 2026-05-06 18:03 | 38.08564 | 23.83826 | 8040 ft | 288 kts | 146° |
| 2026-05-06 18:04 | 38.06908 | 23.85275 | 8039 ft | 289 kts | 146° |
| 2026-05-06 18:04 | 38.05259 | 23.86720 | 8036 ft | 288 kts | 146° |
| 2026-05-06 18:04 | 38.03608 | 23.88168 | 8039 ft | 289 kts | 146° |
| 2026-05-06 18:04 | 38.01957 | 23.89618 | 8039 ft | 289 kts | 146° |
| 2026-05-06 18:05 | 38.00305 | 23.91069 | 8036 ft | 289 kts | 146° |
| 2026-05-06 18:05 | 37.98654 | 23.92515 | 8038 ft | 289 kts | 146° |
| 2026-05-06 18:05 | 37.97001 | 23.93963 | 8036 ft | 289 kts | 146° |
| 2026-05-06 18:05 | 37.95350 | 23.95406 | 8040 ft | 289 kts | 146° |
| 2026-05-06 18:06 | 37.93698 | 23.96852 | 8037 ft | 289 kts | 146° |
| 2026-05-06 18:06 | 37.92043 | 23.98301 | 8037 ft | 289 kts | 146° |
| 2026-05-06 18:06 | 37.90389 | 23.99746 | 8037 ft | 289 kts | 146° |
| 2026-05-06 18:06 | 37.88738 | 24.01188 | 8033 ft | 289 kts | 146° |
| 2026-05-06 18:07 | 37.87086 | 24.02633 | 8037 ft | 288 kts | 146° |
| 2026-05-06 18:07 | 37.85434 | 24.04074 | 8037 ft | 288 kts | 146° |
| 2026-05-06 18:07 | 37.83779 | 24.05512 | 8039 ft | 288 kts | 146° |
| 2026-05-06 18:07 | 37.82130 | 24.06946 | 8039 ft | 288 kts | 146° |
| 2026-05-06 18:08 | 37.80479 | 24.08384 | 8039 ft | 288 kts | 146° |
| 2026-05-06 18:08 | 37.78852 | 24.09802 | 8035 ft | 288 kts | 146° |
| 2026-05-06 18:08 | 37.77204 | 24.11237 | 8038 ft | 288 kts | 146° |
| 2026-05-06 18:08 | 37.75557 | 24.12671 | 8040 ft | 288 kts | 146° |
| 2026-05-06 18:09 | 37.73906 | 24.14105 | 8038 ft | 287 kts | 146° |
| 2026-05-06 18:09 | 37.72258 | 24.15538 | 8039 ft | 288 kts | 144° |
| 2026-05-06 18:09 | 37.70831 | 24.17289 | 8038 ft | 288 kts | 123° |
| 2026-05-06 18:09 | 37.70050 | 24.19592 | 8043 ft | 287 kts | 100° |
| 2026-05-06 18:10 | 37.70052 | 24.22087 | 8040 ft | 286 kts | 76° |
| 2026-05-06 18:10 | 37.70833 | 24.24370 | 8040 ft | 284 kts | 53° |
| 2026-05-06 18:10 | 37.72249 | 24.26070 | 8039 ft | 282 kts | 30° |
| 2026-05-06 18:10 | 37.74072 | 24.26944 | 8038 ft | 280 kts | 7° |
| 2026-05-06 18:11 | 37.76014 | 24.26967 | 8037 ft | 280 kts | 356° |
| 2026-05-06 18:11 | 37.77302 | 24.26880 | 8041 ft | 280 kts | 356° |
| 2026-05-06 18:11 | 37.79907 | 24.26714 | 8041 ft | 280 kts | 356° |
| 2026-05-06 18:11 | 37.81829 | 24.26599 | 8041 ft | 280 kts | 356° |
| 2026-05-06 18:12 | 37.83774 | 24.26481 | 8038 ft | 280 kts | 356° |
| 2026-05-06 18:12 | 37.85722 | 24.26365 | 8038 ft | 280 kts | 356° |
| 2026-05-06 18:12 | 37.87666 | 24.26248 | 8038 ft | 280 kts | 356° |
| 2026-05-06 18:12 | 37.89613 | 24.26130 | 8039 ft | 280 kts | 356° |
| 2026-05-06 18:13 | 37.91563 | 24.26012 | 8037 ft | 280 kts | 356° |
| 2026-05-06 18:13 | 37.93506 | 24.25849 | 8037 ft | 280 kts | 355° |
| 2026-05-06 18:13 | 37.95448 | 24.25642 | 8038 ft | 278 kts | 354° |
| 2026-05-06 18:13 | 37.97335 | 24.25424 | 7950 ft | 267 kts | 354° |
| 2026-05-06 18:14 | 37.99151 | 24.25193 | 7828 ft | 257 kts | 349° |
| 2026-05-06 18:14 | 38.00818 | 24.24537 | 7674 ft | 248 kts | 335° |
| 2026-05-06 18:14 | 38.02414 | 24.23640 | 7299 ft | 250 kts | 335° |
| 2026-05-06 18:14 | 38.03971 | 24.22774 | 7051 ft | 247 kts | 336° |
| 2026-05-06 18:15 | 38.05535 | 24.21893 | 6739 ft | 245 kts | 332° |
| 2026-05-06 18:15 | 38.06926 | 24.20669 | 6418 ft | 244 kts | 319° |
| 2026-05-06 18:15 | 38.08224 | 24.19290 | 6071 ft | 243 kts | 319° |
| 2026-05-06 18:15 | 38.09330 | 24.17697 | 5746 ft | 240 kts | 301° |
| 2026-05-06 18:16 | 38.09948 | 24.15766 | 5230 ft | 237 kts | 281° |
| 2026-05-06 18:16 | 38.10129 | 24.13681 | 4612 ft | 238 kts | 275° |
| 2026-05-06 18:16 | 38.10273 | 24.11617 | 4336 ft | 231 kts | 274° |
| 2026-05-06 18:16 | 38.10102 | 24.09657 | 4202 ft | 220 kts | 247° |
| 2026-05-06 18:17 | 38.09212 | 24.08131 | 3890 ft | 219 kts | 219° |
| 2026-05-06 18:17 | 38.07990 | 24.06965 | 3546 ft | 220 kts | 216° |
| 2026-05-06 18:17 | 38.06761 | 24.05817 | 3246 ft | 218 kts | 217° |
| 2026-05-06 18:17 | 38.05550 | 24.04666 | 2943 ft | 216 kts | 217° |
| 2026-05-06 18:18 | 38.04377 | 24.03545 | 2679 ft | 210 kts | 217° |
| 2026-05-06 18:18 | 38.03250 | 24.02468 | 2422 ft | 195 kts | 217° |
| 2026-05-06 18:18 | 38.02219 | 24.01471 | 2256 ft | 177 kts | 217° |
| 2026-05-06 18:18 | 38.01287 | 24.00575 | 1992 ft | 159 kts | 216° |
| 2026-05-06 18:19 | 38.00433 | 23.99764 | 1722 ft | 149 kts | 216° |
| 2026-05-06 18:19 | 37.99624 | 23.99005 | 1482 ft | 140 kts | 216° |
| 2026-05-06 18:19 | 37.98838 | 23.98272 | 1308 ft | 140 kts | 216° |
| 2026-05-06 18:19 | 37.98055 | 23.97529 | 1173 ft | 141 kts | 217° |
| 2026-05-06 18:20 | 37.97276 | 23.96784 | 1027 ft | 141 kts | 218° |
| 2026-05-06 18:20 | 37.96499 | 23.96032 | 821 ft | 142 kts | 219° |
| 2026-05-06 18:20 | 37.95722 | 23.95297 | 569 ft | 138 kts | 218° |
| 2026-05-06 18:20 | 37.94961 | 23.94570 | 387 ft | 138 kts | 218° |
| 2026-05-06 18:21 | 37.94204 | 23.93844 | 300 ft | 129 kts | 217° |
| 2026-05-06 18:21 | 37.93736 | 23.93395 | 293 ft | 43 kts | 217° |
| 2026-05-06 18:21 | 37.93508 | 23.93194 | 293 ft | 31 kts | 201° |
| 2026-05-06 18:21 | 37.93312 | 23.93137 | 295 ft | 21 kts | 184° |
| 2026-05-06 18:22 | 37.93272 | 23.93232 | 301 ft | 14 kts | 55° |
| 2026-05-06 18:22 | 37.93353 | 23.93316 | 301 ft | 16 kts | 36° |
| 2026-05-06 18:22 | 37.93452 | 23.93411 | 300 ft | 20 kts | 39° |
| 2026-05-06 18:22 | 37.93564 | 23.93527 | 303 ft | 22 kts | 33° |
| 2026-05-06 18:23 | 37.93700 | 23.93647 | 302 ft | 25 kts | 37° |
| 2026-05-06 18:23 | 37.93846 | 23.93780 | 299 ft | 28 kts | 32° |
| 2026-05-06 18:23 | 37.94006 | 23.93935 | 304 ft | 30 kts | 37° |
| 2026-05-06 18:23 | 37.94168 | 23.94090 | 301 ft | 28 kts | 37° |
| 2026-05-06 18:24 | 37.94334 | 23.94241 | 303 ft | 31 kts | 34° |
| 2026-05-06 18:24 | 37.94509 | 23.94413 | 302 ft | 33 kts | 34° |
| 2026-05-06 18:24 | 37.94641 | 23.94531 | 303 ft | 22 kts | 37° |
| 2026-05-06 18:24 | 37.94654 | 23.94665 | 303 ft | 17 kts | 122° |
| 2026-05-06 18:25 | 37.94583 | 23.94807 | 303 ft | 21 kts | 122° |
| 2026-05-06 18:25 | 37.94487 | 23.94959 | 302 ft | 24 kts | 126° |
| 2026-05-06 18:25 | 37.94383 | 23.95136 | 301 ft | 27 kts | 127° |
| 2026-05-06 18:25 | 37.94270 | 23.95323 | 303 ft | 21 kts | 127° |
| 2026-05-06 18:26 | 37.94197 | 23.95449 | 302 ft | 15 kts | 125° |
| 2026-05-06 18:26 | 37.94134 | 23.95458 | 301 ft | 8 kts | 212° |
| 2026-05-06 18:26 | 37.94100 | 23.95426 | 301 ft | 5 kts | 218° |
| 2026-05-06 18:26 | 37.94089 | 23.95416 | 301 ft | 0 kts | 217° |